createdAt,value
2023-04-19T00:01:44.109Z,23.60
2023-04-19T00:04:11.361Z,26.30
2023-04-19T00:06:40.504Z,24.50
2023-04-19T00:09:08.484Z,25.50
2023-04-19T00:11:35.271Z,27.10
2023-04-19T00:14:02.674Z,22.10
2023-04-19T00:16:29.559Z,26.00
2023-04-19T00:18:56.355Z,25.90
2023-04-19T00:21:23.250Z,33.60
2023-04-19T00:23:50.146Z,37.40
2023-04-19T00:26:16.934Z,39.70
2023-04-19T00:28:46.183Z,37.20
2023-04-19T00:31:13.042Z,40.50
2023-04-19T00:33:42.368Z,45.80
2023-04-19T00:36:10.498Z,31.80
2023-04-19T00:38:37.310Z,29.80
2023-04-19T00:41:04.176Z,21.00
2023-04-19T00:43:31.350Z,29.40
2023-04-19T00:45:58.207Z,22.20
2023-04-19T00:48:24.996Z,27.90
2023-04-19T00:50:51.890Z,32.30
2023-04-19T00:53:18.816Z,39.50
2023-04-19T00:55:46.593Z,31.60
2023-04-19T00:58:13.531Z,32.00
2023-04-19T01:00:43.822Z,30.50
2023-04-19T01:03:10.851Z,31.40
2023-04-19T01:05:38.075Z,32.20
2023-04-19T01:08:05.850Z,30.00
2023-04-19T01:10:32.914Z,22.20
2023-04-19T01:12:59.867Z,28.40
2023-04-19T01:15:26.686Z,20.90
2023-04-19T01:17:55.982Z,24.50
2023-04-19T01:20:23.140Z,22.90
2023-04-19T01:22:51.489Z,24.80
2023-04-19T01:25:18.377Z,25.80
2023-04-19T01:27:45.388Z,29.10
2023-04-19T01:30:12.562Z,30.90
2023-04-19T01:32:40.925Z,26.70
2023-04-19T01:35:10.604Z,20.70
2023-04-19T01:37:37.526Z,29.60
2023-04-19T01:40:06.865Z,24.50
2023-04-19T01:42:34.972Z,26.30
2023-04-19T01:45:01.929Z,26.00
2023-04-19T01:47:29.430Z,27.30
2023-04-19T01:49:56.433Z,33.90
2023-04-19T01:52:23.170Z,27.50
2023-04-19T01:54:52.380Z,30.10
2023-04-19T01:57:20.409Z,30.10
2023-04-19T01:59:47.629Z,40.70
2023-04-19T02:02:14.501Z,32.50
2023-04-19T02:04:41.355Z,26.90
2023-04-19T02:07:08.201Z,28.20
2023-04-19T02:09:36.559Z,31.10
2023-04-19T02:12:04.655Z,28.70
2023-04-19T02:14:32.215Z,24.90
2023-04-19T02:16:59.316Z,27.90
2023-04-19T02:19:26.218Z,27.50
2023-04-19T02:21:57.088Z,20.60
2023-04-19T02:24:24.465Z,24.80
2023-04-19T02:26:53.072Z,26.70
2023-04-19T02:29:20.498Z,26.00
2023-04-19T02:31:47.429Z,23.20
2023-04-19T02:34:14.626Z,27.00
2023-04-19T02:36:41.672Z,21.60
2023-04-19T02:39:08.405Z,29.50
2023-04-19T02:41:38.688Z,23.50
2023-04-19T02:44:05.808Z,24.30
2023-04-19T02:46:34.773Z,23.70
2023-04-19T02:49:02.018Z,21.20
2023-04-19T02:51:29.038Z,25.10
2023-04-19T02:53:55.862Z,21.00
2023-04-19T02:56:23.109Z,22.70
2023-04-19T02:58:50.069Z,33.30
2023-04-19T03:01:17.002Z,23.60
2023-04-19T03:03:44.464Z,24.40
2023-04-19T03:06:11.972Z,22.80
2023-04-19T03:08:39.265Z,27.10
2023-04-19T03:11:06.116Z,28.20
2023-04-19T03:13:32.976Z,28.70
2023-04-19T03:15:59.920Z,27.40
2023-04-19T03:18:27.313Z,22.40
2023-04-19T03:20:55.158Z,24.80
2023-04-19T03:23:25.129Z,29.70
2023-04-19T03:25:52.045Z,23.10
2023-04-19T03:28:32.383Z,27.10
2023-04-19T03:31:32.325Z,37.50
2023-04-19T03:33:59.336Z,25.50
2023-04-19T03:36:30.592Z,26.30
2023-04-19T03:38:59.267Z,22.20
2023-04-19T03:41:27.032Z,26.30
2023-04-19T03:44:14.280Z,26.20
2023-04-19T03:46:45.878Z,16.90
2023-04-19T03:49:13.512Z,26.70
2023-04-19T03:51:41.965Z,26.10
2023-04-19T03:54:08.849Z,21.70
2023-04-19T03:56:35.838Z,29.20
2023-04-19T03:59:02.802Z,29.40
2023-04-19T04:01:30.342Z,30.50
2023-04-19T04:03:57.549Z,26.70
2023-04-19T04:06:26.328Z,40.50
2023-04-19T04:08:53.211Z,30.80
2023-04-19T04:11:21.197Z,34.60
2023-04-19T04:13:50.201Z,36.40
2023-04-19T04:16:20.588Z,29.60
2023-04-19T04:18:48.019Z,30.50
2023-04-19T04:21:15.050Z,47.10
2023-04-19T04:23:45.021Z,30.30
2023-04-19T04:26:20.191Z,21.80
2023-04-19T04:28:58.764Z,38.80
2023-04-19T04:31:25.700Z,32.40
2023-04-19T04:33:54.859Z,31.80
2023-04-19T04:36:21.921Z,25.20
2023-04-19T04:38:49.271Z,29.20
2023-04-19T04:41:16.238Z,30.80
2023-04-19T04:43:43.058Z,31.40
2023-04-19T04:46:10.868Z,29.30
2023-04-19T04:48:39.259Z,37.30
2023-04-19T04:51:06.275Z,28.20
2023-04-19T04:53:34.413Z,27.10
2023-04-19T04:56:03.462Z,33.60
2023-04-19T04:58:31.112Z,26.00
2023-04-19T05:01:04.080Z,32.50
2023-04-19T05:03:33.336Z,41.20
2023-04-19T05:06:02.430Z,27.60
2023-04-19T05:08:31.281Z,30.50
2023-04-19T05:11:09.477Z,37.60
2023-04-19T05:13:37.033Z,35.00
2023-04-19T05:16:04.447Z,44.20
2023-04-19T05:18:32.156Z,36.80
2023-04-19T05:20:59.931Z,28.10
2023-04-19T05:23:30.238Z,37.70
2023-04-19T05:28:53.573Z,33.60
2023-04-19T05:31:45.107Z,36.70
2023-04-19T05:34:33.323Z,37.00
2023-04-19T05:37:00.618Z,35.30
2023-04-19T05:39:27.584Z,34.90
2023-04-19T05:41:54.851Z,34.80
2023-04-19T05:44:22.093Z,29.90
2023-04-19T05:46:49.043Z,32.60
2023-04-19T05:49:20.907Z,39.00
2023-04-19T05:52:02.910Z,36.80
2023-04-19T05:54:36.053Z,36.70
2023-04-19T05:57:03.920Z,38.20
2023-04-19T05:59:31.885Z,35.60
2023-04-19T06:02:00.884Z,36.50
2023-04-19T06:04:28.166Z,36.90
2023-04-19T06:06:55.735Z,34.90
2023-04-19T06:09:22.585Z,35.40
2023-04-19T06:11:51.532Z,41.30
2023-04-19T06:14:19.742Z,37.30
2023-04-19T06:16:46.893Z,39.90
2023-04-19T06:19:14.052Z,33.40
2023-04-19T06:21:40.917Z,42.20
2023-04-19T06:24:07.983Z,30.30
2023-04-19T06:26:34.887Z,43.80
2023-04-19T06:29:01.908Z,33.00
2023-04-19T06:31:29.463Z,35.30
2023-04-19T06:33:56.403Z,31.00
2023-04-19T06:36:23.593Z,34.20
2023-04-19T06:38:50.651Z,38.30
2023-04-19T06:41:17.637Z,32.60
2023-04-19T06:43:44.978Z,41.40
2023-04-19T06:46:14.036Z,40.20
2023-04-19T06:48:41.391Z,37.40
2023-04-19T06:51:08.959Z,34.10
2023-04-19T06:53:36.624Z,31.10
2023-04-19T06:56:04.286Z,41.00
2023-04-19T06:58:33.286Z,37.10
2023-04-19T07:01:03.783Z,44.50
2023-04-19T07:03:30.832Z,23.20
2023-04-19T07:05:58.748Z,35.40
2023-04-19T07:08:34.978Z,31.10
2023-04-19T07:11:09.920Z,44.20
2023-04-19T07:13:38.015Z,42.40
2023-04-19T07:16:05.883Z,36.80
2023-04-19T07:18:33.374Z,30.00
2023-04-19T07:21:00.360Z,43.90
2023-04-19T07:23:27.135Z,35.30
2023-04-19T07:25:54.180Z,46.30
2023-04-19T07:28:21.113Z,38.30
2023-04-19T07:30:49.677Z,27.90
2023-04-19T07:33:17.335Z,34.30
2023-04-19T07:35:44.142Z,42.40
2023-04-19T07:38:10.965Z,39.40
2023-04-19T07:40:38.064Z,33.80
2023-04-19T07:43:05.050Z,27.90
2023-04-19T07:45:33.226Z,33.80
2023-04-19T07:48:02.434Z,35.60
2023-04-19T07:50:31.420Z,32.10
2023-04-19T07:52:58.363Z,32.70
2023-04-19T07:55:25.405Z,30.90
2023-04-19T07:57:52.276Z,25.50
2023-04-19T08:00:21.291Z,27.20
2023-04-19T08:02:48.561Z,21.20
2023-04-19T08:05:19.703Z,26.10
2023-04-19T08:07:46.723Z,28.00
2023-04-19T08:10:14.185Z,25.90
2023-04-19T08:12:47.704Z,23.00
2023-04-19T08:17:57.471Z,21.50
2023-04-19T08:20:24.799Z,23.70
2023-04-19T08:22:53.914Z,28.70
2023-04-19T08:25:23.297Z,24.00
2023-04-19T08:27:50.273Z,34.10
2023-04-19T08:30:17.386Z,29.10
2023-04-19T08:32:44.324Z,27.90
2023-04-19T08:35:11.351Z,32.10
2023-04-19T08:37:38.383Z,28.00
2023-04-19T08:40:06.195Z,24.00
2023-04-19T08:42:36.826Z,31.70
2023-04-19T08:47:42.145Z,27.80
2023-04-19T08:50:31.166Z,23.20
2023-04-19T08:53:16.084Z,26.80
2023-04-19T08:58:30.684Z,34.20
2023-04-19T09:01:08.350Z,24.60
2023-04-19T09:04:02.657Z,29.40
2023-04-19T09:06:38.603Z,29.50
2023-04-19T09:11:52.988Z,25.10
2023-04-19T09:14:20.736Z,27.00
2023-04-19T09:16:47.973Z,32.60
2023-04-19T09:19:24.143Z,42.80
2023-04-19T09:21:55.189Z,27.20
2023-04-19T09:25:13.641Z,23.40
2023-04-19T09:27:28.502Z,27.10
2023-04-19T09:29:56.566Z,24.00
2023-04-19T09:32:24.033Z,29.90
2023-04-19T09:34:52.726Z,22.10
2023-04-19T09:37:33.025Z,22.30
2023-04-19T09:40:23.622Z,28.60
2023-04-19T09:45:29.829Z,27.20
2023-04-19T09:48:02.939Z,25.90
2023-04-19T09:50:32.752Z,21.00
2023-04-19T09:53:00.952Z,19.50
2023-04-19T09:55:29.169Z,21.40
2023-04-19T09:58:01.452Z,23.60
2023-04-19T10:00:33.528Z,21.70
2023-04-19T10:03:06.639Z,31.70
2023-04-19T10:05:33.758Z,21.70
2023-04-19T10:08:01.694Z,24.20
2023-04-19T10:15:47.255Z,23.90
2023-04-19T10:18:17.954Z,27.50
2023-04-19T10:21:03.888Z,33.60
2023-04-19T10:23:31.411Z,37.70
2023-04-19T10:25:59.111Z,29.40
2023-04-19T10:28:30.281Z,26.20
2023-04-19T10:31:02.451Z,20.80
2023-04-19T10:33:36.792Z,25.00
2023-04-19T10:36:08.662Z,23.80
2023-04-19T10:38:46.682Z,22.70
2023-04-19T10:41:17.482Z,25.50
2023-04-19T10:43:59.382Z,23.50
2023-04-19T10:49:15.671Z,17.60
2023-04-19T10:51:49.959Z,24.10
2023-04-19T10:57:14.964Z,24.90
2023-04-19T11:00:25.604Z,25.40
2023-04-19T11:02:53.570Z,23.70
2023-04-19T11:05:21.061Z,28.80
2023-04-19T11:07:48.390Z,27.80
2023-04-19T11:10:28.081Z,31.60
2023-04-19T11:12:55.446Z,33.90
2023-04-19T11:15:23.681Z,30.70
2023-04-19T11:18:08.767Z,38.70
2023-04-19T11:20:42.616Z,27.20
2023-04-19T11:23:19.437Z,27.70
2023-04-19T11:25:48.006Z,33.80
2023-04-19T11:28:17.016Z,24.30
2023-04-19T11:30:43.833Z,24.30
2023-04-19T11:33:12.216Z,23.10
2023-04-19T11:35:39.280Z,30.20
2023-04-19T11:38:06.242Z,31.60
2023-04-19T11:40:33.803Z,30.40
2023-04-19T11:43:03.155Z,33.00
2023-04-19T11:45:39.103Z,38.90
2023-04-19T11:48:17.736Z,31.10
2023-04-19T11:50:45.550Z,33.20
2023-04-19T11:53:33.333Z,31.00
2023-04-19T11:56:05.165Z,24.50
2023-04-19T11:58:35.593Z,26.00
2023-04-19T12:01:13.679Z,25.60
2023-04-19T12:03:45.145Z,24.10
2023-04-19T12:06:15.710Z,31.20
2023-04-19T12:08:47.512Z,40.10
2023-04-19T12:11:15.453Z,32.50
2023-04-19T12:13:44.443Z,30.90
2023-04-19T12:16:11.653Z,40.50
2023-04-19T12:18:48.237Z,29.60
2023-04-19T12:21:28.850Z,28.70
2023-04-19T12:23:59.655Z,33.00
2023-04-19T12:26:28.753Z,31.30
2023-04-19T12:28:56.017Z,31.70
2023-04-19T12:31:23.481Z,32.40
2023-04-19T12:33:50.710Z,25.60
2023-04-19T12:36:17.926Z,30.60
2023-04-19T12:38:46.579Z,29.10
2023-04-19T12:41:13.489Z,24.40
2023-04-19T12:43:40.627Z,24.70
2023-04-19T12:46:07.676Z,21.80
2023-04-19T12:48:35.019Z,25.90
2023-04-19T12:51:04.655Z,21.80
2023-04-19T12:53:31.792Z,21.50
2023-04-19T12:55:58.625Z,33.60
2023-04-19T12:58:27.550Z,29.90
2023-04-19T13:00:54.761Z,22.70
2023-04-19T13:03:21.736Z,20.10
2023-04-19T13:05:48.880Z,18.30
2023-04-19T13:08:16.586Z,25.30
2023-04-19T13:10:43.886Z,24.30
2023-04-19T13:13:10.745Z,23.40
2023-04-19T13:15:37.800Z,16.50
2023-04-19T13:18:04.789Z,23.10
2023-04-19T13:20:35.328Z,18.30
2023-04-19T13:23:02.432Z,16.10
2023-04-19T13:25:29.314Z,21.60
2023-04-19T13:27:56.150Z,26.90
2023-04-19T13:30:23.717Z,21.60
2023-04-19T13:32:51.886Z,22.70
2023-04-19T13:35:19.218Z,17.30
2023-04-19T13:37:47.238Z,18.70
2023-04-19T13:40:19.404Z,25.50
2023-04-19T13:42:47.179Z,22.80
2023-04-19T13:45:14.575Z,21.30
2023-04-19T13:47:41.660Z,17.60
2023-04-19T13:50:09.111Z,20.50
2023-04-19T13:52:36.396Z,20.10
2023-04-19T13:55:03.572Z,15.50
2023-04-19T13:57:30.833Z,17.60
2023-04-19T13:59:59.351Z,18.40
2023-04-19T14:02:26.420Z,15.20
2023-04-19T14:04:59.268Z,18.60
2023-04-19T14:07:28.632Z,14.00
2023-04-19T14:09:58.461Z,16.40
2023-04-19T14:12:26.253Z,23.50
2023-04-19T14:14:53.498Z,18.30
2023-04-19T14:17:20.448Z,18.30
2023-04-19T14:19:47.600Z,17.80
2023-04-19T14:22:16.195Z,17.80
2023-04-19T14:24:43.341Z,23.40
2023-04-19T14:27:11.910Z,15.70
2023-04-19T14:29:39.403Z,17.80
2023-04-19T14:32:21.474Z,17.10
2023-04-19T14:37:18.597Z,20.60
2023-04-19T14:39:45.828Z,16.90
2023-04-19T14:42:13.167Z,15.50
2023-04-19T14:44:40.396Z,15.50
2023-04-19T14:47:07.587Z,20.60
2023-04-19T14:49:34.805Z,13.80
2023-04-19T14:52:03.292Z,18.90
2023-04-19T14:54:30.329Z,21.80
2023-04-19T14:56:57.417Z,24.00
2023-04-19T14:59:24.305Z,16.00
2023-04-19T15:01:51.204Z,20.10
2023-04-19T15:04:18.218Z,19.10
2023-04-19T15:06:45.607Z,16.70
2023-04-19T15:09:12.536Z,20.80
2023-04-19T15:11:39.542Z,16.80
2023-04-19T15:14:06.533Z,17.60
2023-04-19T15:16:33.815Z,23.30
2023-04-19T15:19:01.857Z,15.40
2023-04-19T15:21:28.633Z,19.80
2023-04-19T15:23:55.498Z,19.20
2023-04-19T15:26:25.103Z,19.80
2023-04-19T15:28:56.941Z,23.80
2023-04-19T15:31:24.463Z,26.50
2023-04-19T15:33:51.920Z,19.00
2023-04-19T15:36:22.475Z,13.90
2023-04-19T15:38:49.566Z,19.60
2023-04-19T15:41:16.947Z,25.60
2023-04-19T15:43:43.907Z,21.10
2023-04-19T15:46:13.103Z,23.00
2023-04-19T15:48:40.681Z,25.50
2023-04-19T15:51:08.797Z,21.30
2023-04-19T15:56:43.487Z,16.70
2023-04-19T15:59:11.428Z,22.10
2023-04-19T16:01:39.213Z,20.90
2023-04-19T16:04:06.562Z,19.30
2023-04-19T16:06:34.459Z,33.20
2023-04-19T16:09:01.501Z,24.90
2023-04-19T16:11:29.207Z,24.60
2023-04-19T16:13:58.531Z,24.60
2023-04-19T16:16:27.050Z,17.40
2023-04-19T16:18:54.042Z,20.50
2023-04-19T16:21:21.145Z,21.70
2023-04-19T16:23:52.896Z,23.60
2023-04-19T16:26:21.986Z,26.50
2023-04-19T16:28:52.418Z,44.20
2023-04-19T16:31:19.605Z,31.20
2023-04-19T16:33:48.047Z,21.80
2023-04-19T16:36:15.345Z,27.60
2023-04-19T16:38:42.337Z,28.30
2023-04-19T16:41:11.908Z,22.50
2023-04-19T16:43:39.202Z,17.80
2023-04-19T16:46:06.883Z,22.40
2023-04-19T16:48:47.892Z,25.20
2023-04-19T16:51:15.356Z,18.40
2023-04-19T16:53:49.631Z,18.50
2023-04-19T16:56:19.109Z,17.50
2023-04-19T16:58:47.337Z,20.30
2023-04-19T17:01:14.820Z,19.50
2023-04-19T17:03:42.251Z,14.30
2023-04-19T17:06:20.814Z,24.50
2023-04-19T17:08:51.592Z,25.30
2023-04-19T17:11:18.873Z,20.90
2023-04-19T17:13:45.664Z,18.20
2023-04-19T17:16:13.532Z,25.40
2023-04-19T17:18:44.831Z,23.30
2023-04-19T17:21:16.360Z,25.00
2023-04-19T17:23:44.939Z,25.30
2023-04-19T17:26:13.629Z,16.60
2023-04-19T17:28:42.100Z,23.10
2023-04-19T17:31:09.363Z,19.70
2023-04-19T17:33:37.586Z,14.30
2023-04-19T17:36:06.446Z,16.10
2023-04-19T17:38:34.594Z,17.40
2023-04-19T17:41:03.214Z,17.90
2023-04-19T17:49:02.513Z,20.60
2023-04-19T17:51:33.994Z,23.70
2023-04-19T17:54:06.182Z,22.50
2023-04-19T17:57:21.940Z,18.40
2023-04-19T18:04:34.541Z,16.20
2023-04-19T18:07:03.163Z,19.00
2023-04-19T18:09:30.097Z,15.90
2023-04-19T18:11:57.550Z,17.80
2023-04-19T18:14:32.451Z,17.50
2023-04-19T18:17:01.453Z,18.90
2023-04-19T18:22:59.472Z,17.10
2023-04-19T18:26:15.841Z,19.90
2023-04-19T18:29:03.620Z,15.10
2023-04-19T18:31:30.699Z,13.50
2023-04-19T18:33:57.598Z,15.10
2023-04-19T18:36:24.602Z,19.90
2023-04-19T18:38:51.617Z,25.50
2023-04-19T18:41:18.736Z,18.40
2023-04-19T18:44:00.716Z,20.60
2023-04-19T18:46:33.629Z,16.00
2023-04-19T18:49:00.805Z,15.60
2023-04-19T18:51:28.260Z,19.10
2023-04-19T18:53:57.560Z,16.00
2023-04-19T18:56:52.165Z,21.00
2023-04-19T18:59:13.779Z,20.40
2023-04-19T19:01:41.601Z,16.10
2023-04-19T19:04:37.401Z,16.90
2023-04-19T19:07:07.844Z,17.40
2023-04-19T19:12:29.311Z,21.80
2023-04-19T19:14:56.517Z,19.60
2023-04-19T19:17:27.827Z,14.90
2023-04-19T19:19:57.479Z,14.10
2023-04-19T19:22:28.339Z,25.00
2023-04-19T19:24:56.860Z,20.10
2023-04-19T19:27:23.998Z,22.20
2023-04-19T19:29:53.809Z,28.20
2023-04-19T19:32:25.112Z,15.00
2023-04-19T19:37:37.832Z,18.60
2023-04-19T19:40:11.305Z,16.30
2023-04-19T19:42:48.420Z,13.20
2023-04-19T19:45:17.607Z,14.90
2023-04-19T19:47:49.296Z,15.60
2023-04-19T19:52:55.050Z,21.30
2023-04-19T19:55:23.141Z,23.50
2023-04-19T20:00:44.008Z,17.50
2023-04-19T20:03:12.127Z,17.80
2023-04-19T20:05:39.894Z,14.00
2023-04-19T20:08:11.594Z,19.20
2023-04-19T20:10:40.936Z,22.10
2023-04-19T20:13:08.411Z,16.10
2023-04-19T20:15:35.991Z,11.90
2023-04-19T20:18:03.810Z,16.30
2023-04-19T20:20:31.128Z,21.90
2023-04-19T20:22:59.041Z,10.20
2023-04-19T20:25:26.263Z,18.70
2023-04-19T20:27:54.464Z,13.30
2023-04-19T20:30:21.353Z,18.20
2023-04-19T20:32:49.544Z,13.40
2023-04-19T20:35:18.338Z,12.90
2023-04-19T20:37:45.934Z,15.40
2023-04-19T20:40:14.536Z,22.20
2023-04-19T20:42:43.685Z,12.70
2023-04-19T20:45:10.588Z,18.30
2023-04-19T20:47:38.225Z,11.40
2023-04-19T20:50:06.257Z,13.90
2023-04-19T20:52:34.323Z,15.80
2023-04-19T20:55:01.241Z,12.80
2023-04-19T20:57:28.238Z,11.30
2023-04-19T20:59:55.229Z,12.40
2023-04-19T21:02:22.088Z,13.50
2023-04-19T21:04:48.906Z,12.60
2023-04-19T21:07:15.746Z,16.10
2023-04-19T21:09:43.061Z,15.00
2023-04-19T21:12:10.100Z,15.10
2023-04-19T21:14:36.989Z,15.00
2023-04-19T21:17:03.891Z,17.50
2023-04-19T21:19:30.981Z,14.00
2023-04-19T21:21:58.275Z,16.80
2023-04-19T21:24:25.721Z,17.10
2023-04-19T21:26:52.566Z,20.60
2023-04-19T21:29:20.008Z,17.10
2023-04-19T21:31:47.079Z,18.50
2023-04-19T21:34:13.923Z,20.80
2023-04-19T21:36:40.791Z,20.70
2023-04-19T21:39:07.854Z,19.50
2023-04-19T21:41:37.328Z,19.70
2023-04-19T21:44:04.266Z,15.20
2023-04-19T21:46:31.615Z,17.10
2023-04-19T21:48:58.530Z,11.50
2023-04-19T21:51:25.354Z,18.50
2023-04-19T21:53:52.255Z,20.70
2023-04-19T21:56:19.205Z,24.00
2023-04-19T21:58:47.029Z,21.60
2023-04-19T22:01:13.983Z,14.30
2023-04-19T22:03:41.264Z,19.40
2023-04-19T22:06:08.923Z,21.70
2023-04-19T22:08:35.819Z,17.80
2023-04-19T22:11:02.996Z,17.80
2023-04-19T22:13:32.729Z,18.70
2023-04-19T22:16:01.647Z,17.20
2023-04-19T22:18:28.799Z,22.80
2023-04-19T22:20:55.604Z,18.00
2023-04-19T22:23:23.326Z,21.20
2023-04-19T22:25:50.306Z,14.60
2023-04-19T22:28:17.176Z,20.20
2023-04-19T22:30:45.045Z,13.90
2023-04-19T22:33:12.028Z,18.90
2023-04-19T22:35:38.941Z,18.40
2023-04-19T22:38:05.780Z,17.90
2023-04-19T22:40:32.646Z,23.80
2023-04-19T22:42:59.424Z,15.70
2023-04-19T22:45:26.252Z,18.70
2023-04-19T22:47:53.191Z,21.70
2023-04-19T22:50:21.737Z,21.40
2023-04-19T22:52:49.349Z,15.90
2023-04-19T22:55:19.316Z,18.40
2023-04-19T22:57:46.185Z,29.30
2023-04-19T23:00:14.225Z,25.30
2023-04-19T23:02:41.728Z,21.30
2023-04-19T23:05:08.839Z,23.80
2023-04-19T23:07:38.886Z,20.30
2023-04-19T23:10:06.312Z,21.80
2023-04-19T23:12:33.936Z,14.90
2023-04-19T23:15:01.576Z,18.50
2023-04-19T23:17:28.689Z,28.40
2023-04-19T23:19:55.544Z,16.80
2023-04-19T23:22:22.408Z,23.30
2023-04-19T23:24:49.357Z,20.60
2023-04-19T23:27:16.500Z,25.80
2023-04-19T23:29:43.626Z,21.20
2023-04-19T23:32:10.621Z,26.60
2023-04-19T23:34:37.467Z,20.60
2023-04-19T23:37:04.293Z,12.60
2023-04-19T23:39:31.725Z,16.00
2023-04-19T23:41:58.668Z,21.40
2023-04-19T23:44:26.399Z,30.70
2023-04-19T23:46:53.813Z,20.70
2023-04-19T23:49:20.878Z,20.00
2023-04-19T23:51:49.939Z,17.40
2023-04-19T23:54:20.663Z,18.60
2023-04-19T23:56:48.902Z,25.10
2023-04-19T23:59:15.976Z,32.50
